Ana Sayfa
METAR-TAF:

METAR-TAF

Havaalanları :

Amman, Ürdün

Enlem: 31-59N, Boylam: 035-59E, yükseklik: 767 m

Güncel hava durumu gözlemi

Rapor saat 13:00 UTC de 19 dakika önce yapıldı.
Rüzgar doğudan 8 kt
Sıcaklık 12°C
Nem 20%
Basınç 1021 hPa
Görüş mesafesi: 8000 m

METAR: OJAM 231300Z 09008KT 8000 NSC 12/M10 Q1021 NOSIG

Saat: 15:19 (13:19 UTC)

Tahmin

Rapor saat 11:00 UTC de 2 saat ve 19 dakika önce yapıldı.
Ayın 23'si saat 12 UTC'den ayın 24'si saat 18 UTC'ye kadar geçerli Tahmin
Rüzgar doğu/güneydoğudan 8 kt
Görüş mesafesi: 5000 m
Toz Pusu
Olasılık 30%
ayın 23'si saat 12 UTC'den ayın 23'si saat 16 UTC'ye kadar
Rüzgar doğu/güneydoğudan 16 kt
Görüş mesafesi: 4000 m
Savrulan toz

TAF: OJAM 231100Z 2312/2418 12008KT 5000 HZ NSC PROB30 2312/2316 12016KT 4000 BLDU

4.000'den fazla havaalanı için hava durumu gözlemleri ve tahminleri (METAR ve TAF raporları).

Kullanılabilir istasyonlar harita üzerinde sarı ve kırmızı noktalarla gösterilir.

İstasyonun adını görmek için fareyi noktanın üzerinde gezdirin.

Sonrasında hava gözlem ve tahminlerini görmek için tıklayın.

Haritayı değiştirmek için: yaklaştırmak için siyah artı işaretli yeşil düğmeye ve uzaklaştırmak için de eksi işaretli düğmeye hızla tıklayın; bitişik haritalar için yeşil okları kullanın.


METAR-TAF: